sensor_id;sensor_type;location;lat;lon;timestamp;temperature;humidity
47310;DHT22;33046;52.270;6.832;2023-05-07T00:01:47;17.60;99.90
47310;DHT22;33046;52.270;6.832;2023-05-07T00:03:54;17.70;99.90
47310;DHT22;33046;52.270;6.832;2023-05-07T00:06:01;17.60;99.90
47310;DHT22;33046;52.270;6.832;2023-05-07T00:08:09;17.60;99.90
47310;DHT22;33046;52.270;6.832;2023-05-07T00:10:16;17.60;99.90
47310;DHT22;33046;52.270;6.832;2023-05-07T00:12:23;17.60;99.90
47310;DHT22;33046;52.270;6.832;2023-05-07T00:14:30;17.60;99.90
47310;DHT22;33046;52.270;6.832;2023-05-07T00:16:37;17.60;99.90
47310;DHT22;33046;52.270;6.832;2023-05-07T00:18:43;17.60;99.90
47310;DHT22;33046;52.270;6.832;2023-05-07T00:20:50;17.60;99.90
47310;DHT22;33046;52.270;6.832;2023-05-07T00:22:57;17.60;99.90
47310;DHT22;33046;52.270;6.832;2023-05-07T00:25:06;17.50;99.90
47310;DHT22;33046;52.270;6.832;2023-05-07T00:27:13;17.60;99.90
47310;DHT22;33046;52.270;6.832;2023-05-07T00:29:20;17.50;99.90
47310;DHT22;33046;52.270;6.832;2023-05-07T00:31:26;17.60;99.90
47310;DHT22;33046;52.270;6.832;2023-05-07T00:33:33;17.60;99.90
47310;DHT22;33046;52.270;6.832;2023-05-07T00:35:41;17.50;99.90
47310;DHT22;33046;52.270;6.832;2023-05-07T00:37:48;17.50;99.90
47310;DHT22;33046;52.270;6.832;2023-05-07T00:39:55;17.50;99.90
47310;DHT22;33046;52.270;6.832;2023-05-07T00:42:03;17.50;99.90
47310;DHT22;33046;52.270;6.832;2023-05-07T00:44:10;17.50;99.90
47310;DHT22;33046;52.270;6.832;2023-05-07T00:46:18;17.50;99.90
47310;DHT22;33046;52.270;6.832;2023-05-07T00:48:26;17.50;99.90
47310;DHT22;33046;52.270;6.832;2023-05-07T00:50:33;17.50;99.90
47310;DHT22;33046;52.270;6.832;2023-05-07T00:52:40;17.50;99.90
47310;DHT22;33046;52.270;6.832;2023-05-07T00:54:47;17.50;99.90
47310;DHT22;33046;52.270;6.832;2023-05-07T00:56:54;17.40;99.90
47310;DHT22;33046;52.270;6.832;2023-05-07T00:59:03;17.40;99.90
47310;DHT22;33046;52.270;6.832;2023-05-07T01:01:10;17.40;99.90
47310;DHT22;33046;52.270;6.832;2023-05-07T01:03:16;17.40;99.90
47310;DHT22;33046;52.270;6.832;2023-05-07T01:05:25;17.40;99.90
47310;DHT22;33046;52.270;6.832;2023-05-07T01:07:33;17.40;99.90
47310;DHT22;33046;52.270;6.832;2023-05-07T01:09:40;17.40;99.90
47310;DHT22;33046;52.270;6.832;2023-05-07T01:11:48;17.40;99.90
47310;DHT22;33046;52.270;6.832;2023-05-07T01:13:56;17.30;99.90
47310;DHT22;33046;52.270;6.832;2023-05-07T01:16:05;17.30;99.90
47310;DHT22;33046;52.270;6.832;2023-05-07T01:18:12;17.30;99.90
47310;DHT22;33046;52.270;6.832;2023-05-07T01:20:19;17.30;99.90
47310;DHT22;33046;52.270;6.832;2023-05-07T01:22:31;17.30;99.90
47310;DHT22;33046;52.270;6.832;2023-05-07T01:24:39;17.30;99.90
47310;DHT22;33046;52.270;6.832;2023-05-07T01:26:47;17.30;99.90
47310;DHT22;33046;52.270;6.832;2023-05-07T01:28:56;17.30;99.90
47310;DHT22;33046;52.270;6.832;2023-05-07T01:31:03;17.20;99.90
47310;DHT22;33046;52.270;6.832;2023-05-07T01:33:13;17.30;99.90
47310;DHT22;33046;52.270;6.832;2023-05-07T01:35:26;17.20;99.90
47310;DHT22;33046;52.270;6.832;2023-05-07T01:37:35;17.30;99.90
47310;DHT22;33046;52.270;6.832;2023-05-07T01:39:42;17.20;99.90
47310;DHT22;33046;52.270;6.832;2023-05-07T01:41:49;17.20;99.90
47310;DHT22;33046;52.270;6.832;2023-05-07T01:43:56;17.20;99.90
47310;DHT22;33046;52.270;6.832;2023-05-07T01:46:05;17.20;99.90
47310;DHT22;33046;52.270;6.832;2023-05-07T01:48:12;17.20;99.90
47310;DHT22;33046;52.270;6.832;2023-05-07T01:50:20;17.20;99.90
47310;DHT22;33046;52.270;6.832;2023-05-07T01:52:28;17.20;99.90
47310;DHT22;33046;52.270;6.832;2023-05-07T01:54:36;17.10;99.90
47310;DHT22;33046;52.270;6.832;2023-05-07T01:56:43;17.10;99.90
47310;DHT22;33046;52.270;6.832;2023-05-07T01:58:51;17.10;99.90
47310;DHT22;33046;52.270;6.832;2023-05-07T02:00:58;17.10;99.90
47310;DHT22;33046;52.270;6.832;2023-05-07T02:03:05;17.10;99.90
47310;DHT22;33046;52.270;6.832;2023-05-07T02:05:20;17.00;99.90
47310;DHT22;33046;52.270;6.832;2023-05-07T02:07:33;17.00;99.90
47310;DHT22;33046;52.270;6.832;2023-05-07T02:09:41;17.00;99.90
47310;DHT22;33046;52.270;6.832;2023-05-07T02:11:48;17.00;99.90
47310;DHT22;33046;52.270;6.832;2023-05-07T02:13:57;17.00;99.90
47310;DHT22;33046;52.270;6.832;2023-05-07T02:16:05;17.00;99.90
47310;DHT22;33046;52.270;6.832;2023-05-07T02:18:11;17.00;99.90
47310;DHT22;33046;52.270;6.832;2023-05-07T02:20:18;17.00;99.90
47310;DHT22;33046;52.270;6.832;2023-05-07T02:22:25;16.90;99.90
47310;DHT22;33046;52.270;6.832;2023-05-07T02:24:32;17.00;99.90
47310;DHT22;33046;52.270;6.832;2023-05-07T02:26:41;16.90;99.90
47310;DHT22;33046;52.270;6.832;2023-05-07T02:28:47;16.90;99.90
47310;DHT22;33046;52.270;6.832;2023-05-07T02:30:55;16.90;99.90
47310;DHT22;33046;52.270;6.832;2023-05-07T02:33:01;16.90;99.90
47310;DHT22;33046;52.270;6.832;2023-05-07T02:35:08;16.80;99.90
47310;DHT22;33046;52.270;6.832;2023-05-07T02:37:15;16.80;99.90
47310;DHT22;33046;52.270;6.832;2023-05-07T02:39:22;16.80;99.90
47310;DHT22;33046;52.270;6.832;2023-05-07T02:41:29;16.80;99.90
47310;DHT22;33046;52.270;6.832;2023-05-07T02:43:37;16.80;99.90
47310;DHT22;33046;52.270;6.832;2023-05-07T02:45:44;16.80;99.90
47310;DHT22;33046;52.270;6.832;2023-05-07T02:47:52;16.80;99.90
47310;DHT22;33046;52.270;6.832;2023-05-07T02:49:59;16.80;99.90
47310;DHT22;33046;52.270;6.832;2023-05-07T02:52:06;16.80;99.90
47310;DHT22;33046;52.270;6.832;2023-05-07T02:54:13;16.70;99.90
47310;DHT22;33046;52.270;6.832;2023-05-07T02:56:20;16.70;99.90
47310;DHT22;33046;52.270;6.832;2023-05-07T02:58:27;16.70;99.90
47310;DHT22;33046;52.270;6.832;2023-05-07T03:00:36;16.60;99.90
47310;DHT22;33046;52.270;6.832;2023-05-07T03:03:12;16.70;99.90
47310;DHT22;33046;52.270;6.832;2023-05-07T03:05:19;16.60;99.90
47310;DHT22;33046;52.270;6.832;2023-05-07T03:07:25;16.60;99.90
47310;DHT22;33046;52.270;6.832;2023-05-07T03:09:32;16.60;99.90
47310;DHT22;33046;52.270;6.832;2023-05-07T03:11:39;16.60;99.90
47310;DHT22;33046;52.270;6.832;2023-05-07T03:13:46;16.60;99.90
47310;DHT22;33046;52.270;6.832;2023-05-07T03:15:54;16.60;99.90
47310;DHT22;33046;52.270;6.832;2023-05-07T03:18:01;16.50;99.90
47310;DHT22;33046;52.270;6.832;2023-05-07T03:20:09;16.50;99.90
47310;DHT22;33046;52.270;6.832;2023-05-07T03:22:16;16.50;99.90
47310;DHT22;33046;52.270;6.832;2023-05-07T03:24:23;16.50;99.90
47310;DHT22;33046;52.270;6.832;2023-05-07T03:26:30;16.50;99.90
47310;DHT22;33046;52.270;6.832;2023-05-07T03:28:37;16.50;99.90
47310;DHT22;33046;52.270;6.832;2023-05-07T03:30:47;16.50;99.90
47310;DHT22;33046;52.270;6.832;2023-05-07T03:32:56;16.40;99.90
47310;DHT22;33046;52.270;6.832;2023-05-07T03:35:04;16.40;99.90
47310;DHT22;33046;52.270;6.832;2023-05-07T03:37:11;16.40;99.90
47310;DHT22;33046;52.270;6.832;2023-05-07T03:39:18;16.40;99.90
47310;DHT22;33046;52.270;6.832;2023-05-07T03:41:24;16.40;99.90
47310;DHT22;33046;52.270;6.832;2023-05-07T03:43:31;16.30;99.90
47310;DHT22;33046;52.270;6.832;2023-05-07T03:45:44;16.30;99.90
47310;DHT22;33046;52.270;6.832;2023-05-07T03:47:57;16.30;99.90
47310;DHT22;33046;52.270;6.832;2023-05-07T03:50:05;16.20;99.90
47310;DHT22;33046;52.270;6.832;2023-05-07T03:52:12;16.20;99.90
47310;DHT22;33046;52.270;6.832;2023-05-07T03:54:18;16.20;99.90
47310;DHT22;33046;52.270;6.832;2023-05-07T03:56:26;16.20;99.90
47310;DHT22;33046;52.270;6.832;2023-05-07T03:58:35;16.20;99.90
47310;DHT22;33046;52.270;6.832;2023-05-07T04:00:47;16.10;99.90
47310;DHT22;33046;52.270;6.832;2023-05-07T04:03:02;16.10;99.90
47310;DHT22;33046;52.270;6.832;2023-05-07T04:05:10;16.10;99.90
47310;DHT22;33046;52.270;6.832;2023-05-07T04:07:19;16.10;99.90
47310;DHT22;33046;52.270;6.832;2023-05-07T04:09:29;16.10;99.90
47310;DHT22;33046;52.270;6.832;2023-05-07T04:11:36;16.00;99.90
47310;DHT22;33046;52.270;6.832;2023-05-07T04:13:44;16.10;99.90
47310;DHT22;33046;52.270;6.832;2023-05-07T04:15:51;16.00;99.90
47310;DHT22;33046;52.270;6.832;2023-05-07T04:17:59;16.00;99.90
47310;DHT22;33046;52.270;6.832;2023-05-07T04:20:09;16.00;99.90
47310;DHT22;33046;52.270;6.832;2023-05-07T04:22:17;16.00;99.90
47310;DHT22;33046;52.270;6.832;2023-05-07T04:24:24;16.00;99.90
47310;DHT22;33046;52.270;6.832;2023-05-07T04:26:31;16.00;99.90
47310;DHT22;33046;52.270;6.832;2023-05-07T04:28:38;15.90;99.90
47310;DHT22;33046;52.270;6.832;2023-05-07T04:30:46;16.00;99.90
47310;DHT22;33046;52.270;6.832;2023-05-07T04:32:53;16.00;99.90
47310;DHT22;33046;52.270;6.832;2023-05-07T04:35:02;15.90;99.90
47310;DHT22;33046;52.270;6.832;2023-05-07T04:37:10;16.00;99.90
47310;DHT22;33046;52.270;6.832;2023-05-07T04:39:17;16.00;99.90
47310;DHT22;33046;52.270;6.832;2023-05-07T04:41:26;15.90;99.90
47310;DHT22;33046;52.270;6.832;2023-05-07T04:43:33;16.00;99.90
47310;DHT22;33046;52.270;6.832;2023-05-07T04:45:40;15.90;99.90
47310;DHT22;33046;52.270;6.832;2023-05-07T04:47:47;15.90;99.90
47310;DHT22;33046;52.270;6.832;2023-05-07T04:49:54;16.00;99.90
47310;DHT22;33046;52.270;6.832;2023-05-07T04:52:01;15.90;99.90
47310;DHT22;33046;52.270;6.832;2023-05-07T04:54:09;15.90;99.90
47310;DHT22;33046;52.270;6.832;2023-05-07T04:56:16;15.90;99.90
47310;DHT22;33046;52.270;6.832;2023-05-07T04:58:24;16.00;99.90
47310;DHT22;33046;52.270;6.832;2023-05-07T05:00:32;16.00;99.90
47310;DHT22;33046;52.270;6.832;2023-05-07T05:02:40;16.00;99.90
47310;DHT22;33046;52.270;6.832;2023-05-07T05:04:47;16.00;99.90
47310;DHT22;33046;52.270;6.832;2023-05-07T05:06:54;16.00;99.90
47310;DHT22;33046;52.270;6.832;2023-05-07T05:09:01;16.00;99.90
47310;DHT22;33046;52.270;6.832;2023-05-07T05:11:10;16.00;99.90
47310;DHT22;33046;52.270;6.832;2023-05-07T05:13:17;16.00;99.90
47310;DHT22;33046;52.270;6.832;2023-05-07T05:15:24;16.00;99.90
47310;DHT22;33046;52.270;6.832;2023-05-07T05:17:31;16.00;99.90
47310;DHT22;33046;52.270;6.832;2023-05-07T05:19:38;16.10;99.90
47310;DHT22;33046;52.270;6.832;2023-05-07T05:21:45;16.10;99.90
47310;DHT22;33046;52.270;6.832;2023-05-07T05:23:52;16.10;99.90
47310;DHT22;33046;52.270;6.832;2023-05-07T05:26:02;16.10;99.90
47310;DHT22;33046;52.270;6.832;2023-05-07T05:28:13;16.20;99.90
47310;DHT22;33046;52.270;6.832;2023-05-07T05:30:20;16.20;99.90
47310;DHT22;33046;52.270;6.832;2023-05-07T05:32:27;16.20;99.90
47310;DHT22;33046;52.270;6.832;2023-05-07T05:34:35;16.20;99.90
47310;DHT22;33046;52.270;6.832;2023-05-07T05:36:44;16.30;99.90
47310;DHT22;33046;52.270;6.832;2023-05-07T05:38:52;16.30;99.90
47310;DHT22;33046;52.270;6.832;2023-05-07T05:41:01;16.40;99.90
47310;DHT22;33046;52.270;6.832;2023-05-07T05:43:09;16.40;99.90
47310;DHT22;33046;52.270;6.832;2023-05-07T05:45:18;16.40;99.90
47310;DHT22;33046;52.270;6.832;2023-05-07T05:47:25;16.40;99.90
47310;DHT22;33046;52.270;6.832;2023-05-07T05:49:34;16.50;99.90
47310;DHT22;33046;52.270;6.832;2023-05-07T05:51:43;16.50;99.90
47310;DHT22;33046;52.270;6.832;2023-05-07T05:53:50;16.50;99.90
47310;DHT22;33046;52.270;6.832;2023-05-07T05:55:57;16.50;99.90
47310;DHT22;33046;52.270;6.832;2023-05-07T05:58:04;16.50;99.90
47310;DHT22;33046;52.270;6.832;2023-05-07T06:00:18;16.60;99.90
47310;DHT22;33046;52.270;6.832;2023-05-07T06:02:24;16.50;99.90
47310;DHT22;33046;52.270;6.832;2023-05-07T06:04:31;16.60;99.90
47310;DHT22;33046;52.270;6.832;2023-05-07T06:06:38;16.60;99.90
47310;DHT22;33046;52.270;6.832;2023-05-07T06:08:46;16.60;99.90
47310;DHT22;33046;52.270;6.832;2023-05-07T06:10:57;16.60;99.90
47310;DHT22;33046;52.270;6.832;2023-05-07T06:13:05;16.60;99.90
47310;DHT22;33046;52.270;6.832;2023-05-07T06:15:13;16.60;99.90
47310;DHT22;33046;52.270;6.832;2023-05-07T06:17:22;16.70;99.90
47310;DHT22;33046;52.270;6.832;2023-05-07T06:19:30;16.70;99.90
47310;DHT22;33046;52.270;6.832;2023-05-07T06:21:38;16.70;99.90
47310;DHT22;33046;52.270;6.832;2023-05-07T06:23:46;16.70;99.90
47310;DHT22;33046;52.270;6.832;2023-05-07T06:25:53;16.70;99.90
47310;DHT22;33046;52.270;6.832;2023-05-07T06:28:04;16.80;99.90
47310;DHT22;33046;52.270;6.832;2023-05-07T06:30:13;16.70;99.90
47310;DHT22;33046;52.270;6.832;2023-05-07T06:32:22;16.80;99.90
47310;DHT22;33046;52.270;6.832;2023-05-07T06:34:29;16.80;99.90
47310;DHT22;33046;52.270;6.832;2023-05-07T06:36:36;16.80;99.90
47310;DHT22;33046;52.270;6.832;2023-05-07T06:38:52;16.80;99.90
47310;DHT22;33046;52.270;6.832;2023-05-07T06:41:00;16.80;99.90
47310;DHT22;33046;52.270;6.832;2023-05-07T06:43:06;16.80;99.90
47310;DHT22;33046;52.270;6.832;2023-05-07T06:45:21;16.80;99.90
47310;DHT22;33046;52.270;6.832;2023-05-07T06:47:29;16.90;99.90
47310;DHT22;33046;52.270;6.832;2023-05-07T06:49:36;16.80;99.90
47310;DHT22;33046;52.270;6.832;2023-05-07T06:51:43;16.80;99.90
47310;DHT22;33046;52.270;6.832;2023-05-07T06:53:50;16.90;99.90
47310;DHT22;33046;52.270;6.832;2023-05-07T06:55:57;16.90;99.90
47310;DHT22;33046;52.270;6.832;2023-05-07T06:58:04;16.90;99.90
47310;DHT22;33046;52.270;6.832;2023-05-07T07:00:12;16.90;99.90
47310;DHT22;33046;52.270;6.832;2023-05-07T07:02:29;16.90;99.90
47310;DHT22;33046;52.270;6.832;2023-05-07T07:04:36;16.90;99.90
47310;DHT22;33046;52.270;6.832;2023-05-07T07:06:46;17.00;99.90
47310;DHT22;33046;52.270;6.832;2023-05-07T07:08:53;17.00;99.90
47310;DHT22;33046;52.270;6.832;2023-05-07T07:11:00;17.00;99.90
47310;DHT22;33046;52.270;6.832;2023-05-07T07:13:07;17.10;99.90
47310;DHT22;33046;52.270;6.832;2023-05-07T07:15:15;17.20;99.90
47310;DHT22;33046;52.270;6.832;2023-05-07T07:17:22;17.30;99.90
47310;DHT22;33046;52.270;6.832;2023-05-07T07:19:30;17.30;99.90
47310;DHT22;33046;52.270;6.832;2023-05-07T07:21:38;17.40;99.90
47310;DHT22;33046;52.270;6.832;2023-05-07T07:23:45;17.40;99.90
47310;DHT22;33046;52.270;6.832;2023-05-07T07:25:52;17.50;99.90
47310;DHT22;33046;52.270;6.832;2023-05-07T07:27:59;17.50;99.90
47310;DHT22;33046;52.270;6.832;2023-05-07T07:30:07;17.50;99.90
47310;DHT22;33046;52.270;6.832;2023-05-07T07:32:17;17.50;99.90
47310;DHT22;33046;52.270;6.832;2023-05-07T07:34:24;17.50;99.90
47310;DHT22;33046;52.270;6.832;2023-05-07T07:36:32;17.50;99.90
47310;DHT22;33046;52.270;6.832;2023-05-07T07:38:45;17.50;99.90
47310;DHT22;33046;52.270;6.832;2023-05-07T07:40:52;17.50;99.90
47310;DHT22;33046;52.270;6.832;2023-05-07T07:42:59;17.50;99.90
47310;DHT22;33046;52.270;6.832;2023-05-07T07:45:07;17.50;99.90
47310;DHT22;33046;52.270;6.832;2023-05-07T07:47:18;17.60;99.90
47310;DHT22;33046;52.270;6.832;2023-05-07T07:49:27;17.60;99.90
47310;DHT22;33046;52.270;6.832;2023-05-07T07:51:36;17.60;99.90
47310;DHT22;33046;52.270;6.832;2023-05-07T07:53:43;17.70;99.90
47310;DHT22;33046;52.270;6.832;2023-05-07T07:55:50;17.70;99.90
47310;DHT22;33046;52.270;6.832;2023-05-07T07:58:00;17.70;99.90
47310;DHT22;33046;52.270;6.832;2023-05-07T08:00:07;17.80;99.90
47310;DHT22;33046;52.270;6.832;2023-05-07T08:02:22;17.80;99.90
47310;DHT22;33046;52.270;6.832;2023-05-07T08:04:30;17.90;99.90
47310;DHT22;33046;52.270;6.832;2023-05-07T08:06:42;17.90;99.90
47310;DHT22;33046;52.270;6.832;2023-05-07T08:08:49;17.80;99.90
47310;DHT22;33046;52.270;6.832;2023-05-07T08:10:56;17.90;99.90
47310;DHT22;33046;52.270;6.832;2023-05-07T08:13:10;18.00;99.90
47310;DHT22;33046;52.270;6.832;2023-05-07T08:15:19;18.00;99.90
47310;DHT22;33046;52.270;6.832;2023-05-07T08:17:26;18.00;99.90
47310;DHT22;33046;52.270;6.832;2023-05-07T08:19:35;18.10;99.90
47310;DHT22;33046;52.270;6.832;2023-05-07T08:21:44;18.10;99.90
47310;DHT22;33046;52.270;6.832;2023-05-07T08:23:51;18.20;99.90
47310;DHT22;33046;52.270;6.832;2023-05-07T08:25:58;18.10;99.90
47310;DHT22;33046;52.270;6.832;2023-05-07T08:28:05;18.20;99.90
47310;DHT22;33046;52.270;6.832;2023-05-07T08:30:13;18.20;99.90
47310;DHT22;33046;52.270;6.832;2023-05-07T08:32:21;18.20;99.90
47310;DHT22;33046;52.270;6.832;2023-05-07T08:34:27;18.30;99.90
47310;DHT22;33046;52.270;6.832;2023-05-07T08:36:36;18.30;99.90
47310;DHT22;33046;52.270;6.832;2023-05-07T08:38:44;18.40;99.90
47310;DHT22;33046;52.270;6.832;2023-05-07T08:40:52;18.40;99.90
47310;DHT22;33046;52.270;6.832;2023-05-07T08:43:00;18.50;99.90
47310;DHT22;33046;52.270;6.832;2023-05-07T08:45:09;18.60;99.90
47310;DHT22;33046;52.270;6.832;2023-05-07T08:47:20;18.60;99.90
47310;DHT22;33046;52.270;6.832;2023-05-07T08:49:31;18.60;99.90
47310;DHT22;33046;52.270;6.832;2023-05-07T08:51:38;18.70;99.90
47310;DHT22;33046;52.270;6.832;2023-05-07T08:53:47;18.80;99.90
47310;DHT22;33046;52.270;6.832;2023-05-07T08:55:57;18.80;99.90
47310;DHT22;33046;52.270;6.832;2023-05-07T08:58:05;18.80;99.90
47310;DHT22;33046;52.270;6.832;2023-05-07T09:00:14;18.80;99.90
47310;DHT22;33046;52.270;6.832;2023-05-07T09:02:23;18.90;99.90
47310;DHT22;33046;52.270;6.832;2023-05-07T09:04:29;18.90;99.90
47310;DHT22;33046;52.270;6.832;2023-05-07T09:06:36;19.00;99.90
47310;DHT22;33046;52.270;6.832;2023-05-07T09:08:49;19.00;99.90
47310;DHT22;33046;52.270;6.832;2023-05-07T09:10:56;19.10;99.90
47310;DHT22;33046;52.270;6.832;2023-05-07T09:13:03;19.10;99.90
47310;DHT22;33046;52.270;6.832;2023-05-07T09:15:10;19.20;99.90
47310;DHT22;33046;52.270;6.832;2023-05-07T09:17:18;19.20;99.90
47310;DHT22;33046;52.270;6.832;2023-05-07T09:19:25;19.20;99.90
47310;DHT22;33046;52.270;6.832;2023-05-07T09:21:34;19.30;99.90
47310;DHT22;33046;52.270;6.832;2023-05-07T09:23:48;19.30;99.90
47310;DHT22;33046;52.270;6.832;2023-05-07T09:26:00;19.40;99.90
47310;DHT22;33046;52.270;6.832;2023-05-07T09:28:09;19.40;99.90
47310;DHT22;33046;52.270;6.832;2023-05-07T09:30:16;19.50;99.90
47310;DHT22;33046;52.270;6.832;2023-05-07T09:32:22;19.50;99.90
47310;DHT22;33046;52.270;6.832;2023-05-07T09:34:31;19.60;99.90
47310;DHT22;33046;52.270;6.832;2023-05-07T09:36:38;19.70;99.90
47310;DHT22;33046;52.270;6.832;2023-05-07T09:38:46;19.80;99.60
47310;DHT22;33046;52.270;6.832;2023-05-07T09:41:02;19.80;99.40
47310;DHT22;33046;52.270;6.832;2023-05-07T09:43:11;19.90;99.00
47310;DHT22;33046;52.270;6.832;2023-05-07T09:45:25;20.00;99.30
47310;DHT22;33046;52.270;6.832;2023-05-07T09:47:32;20.10;99.60
47310;DHT22;33046;52.270;6.832;2023-05-07T09:49:46;20.20;98.90
47310;DHT22;33046;52.270;6.832;2023-05-07T09:51:56;20.30;98.70
47310;DHT22;33046;52.270;6.832;2023-05-07T09:54:07;20.50;99.50
47310;DHT22;33046;52.270;6.832;2023-05-07T09:56:17;20.50;98.90
47310;DHT22;33046;52.270;6.832;2023-05-07T09:58:26;20.60;98.70
47310;DHT22;33046;52.270;6.832;2023-05-07T10:00:34;20.60;98.40
47310;DHT22;33046;52.270;6.832;2023-05-07T10:02:50;20.70;98.00
47310;DHT22;33046;52.270;6.832;2023-05-07T10:05:03;20.70;97.90
47310;DHT22;33046;52.270;6.832;2023-05-07T10:07:13;20.80;97.90
47310;DHT22;33046;52.270;6.832;2023-05-07T10:09:22;20.90;98.20
47310;DHT22;33046;52.270;6.832;2023-05-07T10:11:32;20.90;97.90
47310;DHT22;33046;52.270;6.832;2023-05-07T10:13:39;20.90;98.30
47310;DHT22;33046;52.270;6.832;2023-05-07T10:15:49;21.00;98.60
47310;DHT22;33046;52.270;6.832;2023-05-07T10:17:57;21.00;98.10
47310;DHT22;33046;52.270;6.832;2023-05-07T10:20:06;21.10;97.60
47310;DHT22;33046;52.270;6.832;2023-05-07T10:22:15;21.10;97.70
47310;DHT22;33046;52.270;6.832;2023-05-07T10:24:31;21.20;97.40
47310;DHT22;33046;52.270;6.832;2023-05-07T10:26:41;21.30;97.50
47310;DHT22;33046;52.270;6.832;2023-05-07T10:28:58;21.30;97.20
47310;DHT22;33046;52.270;6.832;2023-05-07T10:31:32;21.30;97.30
47310;DHT22;33046;52.270;6.832;2023-05-07T10:33:45;21.40;97.50
47310;DHT22;33046;52.270;6.832;2023-05-07T10:35:57;21.40;97.60
47310;DHT22;33046;52.270;6.832;2023-05-07T10:38:05;21.40;97.00
47310;DHT22;33046;52.270;6.832;2023-05-07T10:40:17;21.40;96.50
47310;DHT22;33046;52.270;6.832;2023-05-07T10:42:24;21.40;95.80
47310;DHT22;33046;52.270;6.832;2023-05-07T10:44:34;21.50;96.30
47310;DHT22;33046;52.270;6.832;2023-05-07T10:47:06;21.60;96.60
47310;DHT22;33046;52.270;6.832;2023-05-07T10:49:13;21.70;96.00
47310;DHT22;33046;52.270;6.832;2023-05-07T10:51:35;21.70;95.60
47310;DHT22;33046;52.270;6.832;2023-05-07T10:54:23;21.80;95.70
47310;DHT22;33046;52.270;6.832;2023-05-07T10:56:44;22.00;95.70
47310;DHT22;33046;52.270;6.832;2023-05-07T10:59:37;22.00;96.10
47310;DHT22;33046;52.270;6.832;2023-05-07T11:01:54;22.00;95.50
47310;DHT22;33046;52.270;6.832;2023-05-07T11:04:15;22.00;95.50
47310;DHT22;33046;52.270;6.832;2023-05-07T11:06:30;22.10;95.10
47310;DHT22;33046;52.270;6.832;2023-05-07T11:08:53;22.20;94.90
47310;DHT22;33046;52.270;6.832;2023-05-07T11:11:03;22.30;94.60
47310;DHT22;33046;52.270;6.832;2023-05-07T11:13:16;22.30;94.90
47310;DHT22;33046;52.270;6.832;2023-05-07T11:15:36;22.40;95.40
47310;DHT22;33046;52.270;6.832;2023-05-07T11:17:54;22.30;94.50
47310;DHT22;33046;52.270;6.832;2023-05-07T11:20:02;22.30;94.70
47310;DHT22;33046;52.270;6.832;2023-05-07T11:22:39;22.40;95.10
47310;DHT22;33046;52.270;6.832;2023-05-07T11:24:59;22.50;94.50
47310;DHT22;33046;52.270;6.832;2023-05-07T11:27:06;22.60;94.70
47310;DHT22;33046;52.270;6.832;2023-05-07T11:29:15;22.70;94.50
47310;DHT22;33046;52.270;6.832;2023-05-07T11:31:26;22.70;94.60
47310;DHT22;33046;52.270;6.832;2023-05-07T11:33:34;22.80;94.60
47310;DHT22;33046;52.270;6.832;2023-05-07T11:35:43;22.80;94.40
47310;DHT22;33046;52.270;6.832;2023-05-07T11:37:58;23.10;94.60
47310;DHT22;33046;52.270;6.832;2023-05-07T11:40:08;23.00;94.20
47310;DHT22;33046;52.270;6.832;2023-05-07T11:42:25;23.00;93.70
47310;DHT22;33046;52.270;6.832;2023-05-07T11:44:42;23.00;93.70
47310;DHT22;33046;52.270;6.832;2023-05-07T11:46:51;23.10;92.80
47310;DHT22;33046;52.270;6.832;2023-05-07T11:48:58;23.00;93.40
47310;DHT22;33046;52.270;6.832;2023-05-07T11:51:06;23.10;94.10
47310;DHT22;33046;52.270;6.832;2023-05-07T11:53:13;23.00;93.40
47310;DHT22;33046;52.270;6.832;2023-05-07T11:55:20;23.00;93.40
47310;DHT22;33046;52.270;6.832;2023-05-07T11:57:27;23.00;93.70
47310;DHT22;33046;52.270;6.832;2023-05-07T11:59:39;23.20;94.20
47310;DHT22;33046;52.270;6.832;2023-05-07T12:01:46;23.20;93.80
47310;DHT22;33046;52.270;6.832;2023-05-07T12:03:54;23.30;93.60
47310;DHT22;33046;52.270;6.832;2023-05-07T12:06:01;23.20;93.10
47310;DHT22;33046;52.270;6.832;2023-05-07T12:08:08;23.10;93.30
47310;DHT22;33046;52.270;6.832;2023-05-07T12:10:15;23.10;93.40
47310;DHT22;33046;52.270;6.832;2023-05-07T12:12:22;23.30;93.70
47310;DHT22;33046;52.270;6.832;2023-05-07T12:14:28;23.30;92.30
47310;DHT22;33046;52.270;6.832;2023-05-07T12:16:35;23.30;92.50
47310;DHT22;33046;52.270;6.832;2023-05-07T12:18:42;23.20;92.70
47310;DHT22;33046;52.270;6.832;2023-05-07T12:20:51;23.30;92.20
47310;DHT22;33046;52.270;6.832;2023-05-07T12:22:58;23.50;92.00
47310;DHT22;33046;52.270;6.832;2023-05-07T12:25:05;23.50;92.00
47310;DHT22;33046;52.270;6.832;2023-05-07T12:27:13;23.70;91.30
47310;DHT22;33046;52.270;6.832;2023-05-07T12:29:21;23.80;91.50
47310;DHT22;33046;52.270;6.832;2023-05-07T12:31:28;23.90;91.30
47310;DHT22;33046;52.270;6.832;2023-05-07T12:33:35;24.00;90.90
47310;DHT22;33046;52.270;6.832;2023-05-07T12:35:43;24.00;91.30
47310;DHT22;33046;52.270;6.832;2023-05-07T12:37:56;24.00;90.70
47310;DHT22;33046;52.270;6.832;2023-05-07T12:40:06;24.00;90.90
47310;DHT22;33046;52.270;6.832;2023-05-07T12:42:15;24.00;90.90
47310;DHT22;33046;52.270;6.832;2023-05-07T12:44:22;23.90;90.90
47310;DHT22;33046;52.270;6.832;2023-05-07T12:46:29;23.90;90.70
47310;DHT22;33046;52.270;6.832;2023-05-07T12:48:37;23.90;90.20
47310;DHT22;33046;52.270;6.832;2023-05-07T12:50:44;23.80;90.30
47310;DHT22;33046;52.270;6.832;2023-05-07T12:52:50;23.90;90.30
47310;DHT22;33046;52.270;6.832;2023-05-07T12:55:05;23.90;90.20
47310;DHT22;33046;52.270;6.832;2023-05-07T12:57:11;23.90;89.90
47310;DHT22;33046;52.270;6.832;2023-05-07T12:59:18;23.80;90.10
47310;DHT22;33046;52.270;6.832;2023-05-07T13:01:29;23.90;90.70
47310;DHT22;33046;52.270;6.832;2023-05-07T13:03:37;24.00;90.70
47310;DHT22;33046;52.270;6.832;2023-05-07T13:05:44;23.90;90.50
47310;DHT22;33046;52.270;6.832;2023-05-07T13:07:54;23.80;90.10
47310;DHT22;33046;52.270;6.832;2023-05-07T13:10:03;23.80;90.70
47310;DHT22;33046;52.270;6.832;2023-05-07T13:12:10;23.90;90.40
47310;DHT22;33046;52.270;6.832;2023-05-07T13:14:16;23.90;90.20
47310;DHT22;33046;52.270;6.832;2023-05-07T13:16:23;23.90;90.10
47310;DHT22;33046;52.270;6.832;2023-05-07T13:18:30;24.00;89.80
47310;DHT22;33046;52.270;6.832;2023-05-07T13:20:37;24.10;88.70
47310;DHT22;33046;52.270;6.832;2023-05-07T13:22:44;24.00;88.10
47310;DHT22;33046;52.270;6.832;2023-05-07T13:24:51;23.90;88.00
47310;DHT22;33046;52.270;6.832;2023-05-07T13:26:59;24.00;88.80
47310;DHT22;33046;52.270;6.832;2023-05-07T13:29:06;24.10;88.00
47310;DHT22;33046;52.270;6.832;2023-05-07T13:31:13;24.10;86.70
47310;DHT22;33046;52.270;6.832;2023-05-07T13:33:19;24.20;87.80
47310;DHT22;33046;52.270;6.832;2023-05-07T13:35:26;24.20;86.70